Time;durP1;ratioP1;P1;durP2;ratioP2;P2;SDS_P1;SDS_P2;PMS_P1;PMS_P2;Temp;Humidity;BMP_temperature;BMP_pressure;BME280_temperature;BME280_humidity;BME280_pressure;Samples;Min_cycle;Max_cycle;Signal;HPM_P1;HPM_P2
2023/04/29 00:01:04;;;;;;;10.80;6.78;;;;;;;5.80;60.38;99549.83;1763823;79;20986;-68
2023/04/29 00:03:31;;;;;;;17.57;8.03;;;;;;;5.80;60.05;99544.20;1786502;79;21069;-67
2023/04/29 00:05:58;;;;;;;19.70;8.43;;;;;;;5.80;59.97;99543.36;1784543;79;21077;-69
2023/04/29 00:08:25;;;;;;;25.43;10.35;;;;;;;5.79;59.74;99531.27;1775148;79;21084;-67
2023/04/29 00:10:51;;;;;;;24.23;10.85;;;;;;;5.80;59.84;99534.28;1735578;81;20978;-69
2023/04/29 00:13:18;;;;;;;27.48;11.45;;;;;;;5.82;59.77;99532.47;1780503;79;21073;-68
2023/04/29 00:15:44;;;;;;;34.65;13.98;;;;;;;5.80;59.69;99527.81;1787520;79;21664;-68
2023/04/29 00:18:11;;;;;;;38.63;16.00;;;;;;;5.80;59.65;99530.40;1784576;79;20946;-68
2023/04/29 00:20:38;;;;;;;40.90;16.87;;;;;;;5.79;59.59;99527.39;1785122;79;21045;-68
2023/04/29 00:23:05;;;;;;;;;;;;;;;5.78;59.60;99521.82;1787018;79;21018;-67
2023/04/29 00:25:31;;;;;;;38.67;14.68;;;;;;;5.77;59.56;99520.10;1780113;79;20438;-69
2023/04/29 00:28:00;;;;;;;46.50;17.07;;;;;;;5.75;59.48;99521.92;1785319;79;21061;-68
2023/04/29 00:30:26;;;;;;;41.70;16.50;;;;;;;5.74;59.46;99521.49;1784467;79;21077;-67
2023/04/29 00:32:52;;;;;;;51.08;19.52;;;;;;;5.73;59.45;99528.87;1739922;81;21095;-67
2023/04/29 00:35:18;;;;;;;53.30;20.27;;;;;;;5.69;59.34;99523.41;1739830;81;21014;-68
2023/04/29 00:37:45;;;;;;;66.77;24.35;;;;;;;5.67;59.32;99518.70;1785218;79;20942;-68
2023/04/29 00:40:16;;;;;;;69.50;24.27;;;;;;;5.67;59.23;99520.00;1772716;79;21053;-68
2023/04/29 00:42:42;;;;;;;67.65;22.45;;;;;;;5.68;59.20;99520.39;1781705;79;21454;-69
2023/04/29 00:45:10;;;;;;;56.33;22.15;;;;;;;5.68;59.17;99516.51;1777524;79;20990;-68
2023/04/29 00:47:38;;;;;;;56.92;22.27;;;;;;;5.68;59.09;99506.14;1777349;79;20934;-68
2023/04/29 00:50:07;;;;;;;60.65;22.67;;;;;;;5.66;59.10;99515.70;1778773;79;21883;-68
2023/04/29 00:52:35;;;;;;;47.48;20.37;;;;;;;5.66;59.04;99510.52;1773316;79;21076;-67
2023/04/29 00:55:01;;;;;;;;;;;;;;;5.67;58.97;99510.94;1745207;79;21041;-69
2023/04/29 00:57:29;;;;;;;48.45;21.65;;;;;;;5.67;58.91;99512.23;1749614;81;20185;-68
2023/04/29 00:59:58;;;;;;;47.67;20.82;;;;;;;5.64;58.94;99505.40;1766532;78;21057;-67
2023/04/29 01:02:25;;;;;;;39.23;19.77;;;;;;;5.61;58.83;99503.75;1784532;79;21608;-69
2023/04/29 01:04:55;;;;;;;38.70;19.52;;;;;;;5.61;58.86;99508.93;1778878;79;21561;-68
2023/04/29 01:07:28;;;;;;;39.90;19.60;;;;;;;5.60;58.80;99504.66;1782715;79;21467;-68
2023/04/29 01:10:16;;;;;;;35.88;18.35;;;;;;;5.61;58.75;99501.16;1786303;79;21080;-68
2023/04/29 01:12:48;;;;;;;33.08;17.37;;;;;;;5.61;58.72;99501.16;1782463;79;20955;-67
2023/04/29 01:15:32;;;;;;;30.35;17.35;;;;;;;5.61;58.75;99498.57;1779169;79;21486;-69
2023/04/29 01:18:02;;;;;;;30.23;17.73;;;;;;;5.61;58.70;99498.57;1784555;79;21057;-69
2023/04/29 01:20:30;;;;;;;31.12;17.45;;;;;;;5.58;58.66;99496.08;1783589;79;21054;-69
2023/04/29 01:22:57;;;;;;;26.90;15.58;;;;;;;5.59;58.71;99502.94;1783924;79;21592;-68
2023/04/29 01:25:23;;;;;;;23.00;14.03;;;;;;;5.58;58.63;99501.25;1781834;79;21069;-68
2023/04/29 01:28:11;;;;;;;20.77;12.18;;;;;;;5.58;58.64;99497.83;1785318;79;20967;-68
2023/04/29 01:30:50;;;;;;;20.55;11.10;;;;;;;5.59;58.62;99492.58;1782091;79;21078;-69
2023/04/29 01:33:30;;;;;;;18.57;10.13;;;;;;;5.59;58.61;99496.47;1774146;79;21089;-69
2023/04/29 01:36:34;;;;;;;19.02;9.10;;;;;;;5.59;58.52;99497.76;1783097;79;21171;-68
2023/04/29 01:39:10;;;;;;;10.70;7.12;;;;;;;5.57;58.54;99499.58;1780464;79;21830;-67
2023/04/29 01:41:44;;;;;;;14.98;8.10;;;;;;;5.54;58.49;99499.63;1785762;79;21525;-68
2023/04/29 01:44:13;;;;;;;12.82;7.12;;;;;;;5.55;58.47;99489.70;1776470;79;21292;-68
2023/04/29 01:46:41;;;;;;;12.95;7.33;;;;;;;5.55;58.44;99483.22;1780912;79;20955;-68
2023/04/29 01:49:08;;;;;;;;;;;;;;;5.58;58.51;99482.28;1789540;79;20943;-68
2023/04/29 01:51:36;;;;;;;11.85;6.85;;;;;;;5.60;58.51;99481.77;1747602;79;20100;-69
2023/04/29 01:54:04;;;;;;;15.85;6.95;;;;;;;5.61;58.43;99485.63;1783800;79;21085;-69
2023/04/29 01:56:30;;;;;;;11.05;6.35;;;;;;;5.63;58.43;99482.13;1783289;79;20983;-68
2023/04/29 01:58:56;;;;;;;11.20;6.95;;;;;;;5.65;58.37;99477.75;1785621;79;21093;-68
2023/04/29 02:01:23;;;;;;;11.40;6.62;;;;;;;5.68;58.35;99478.95;1781765;79;21521;-69
2023/04/29 02:03:52;;;;;;;10.70;6.27;;;;;;;5.69;58.39;99471.59;1783300;79;21045;-68
2023/04/29 02:06:19;;;;;;;10.50;6.40;;;;;;;5.70;58.33;99469.39;1742075;81;21005;-67
2023/04/29 02:08:45;;;;;;;10.18;6.00;;;;;;;5.71;58.27;99464.60;1738901;81;22388;-68
2023/04/29 02:11:13;;;;;;;11.08;6.83;;;;;;;5.73;58.28;99465.41;1774306;79;21029;-69
2023/04/29 02:13:40;;;;;;;14.23;6.70;;;;;;;5.76;58.21;99458.83;1775002;79;21005;-69
2023/04/29 02:16:12;;;;;;;10.00;6.17;;;;;;;5.79;58.20;99457.44;1776835;79;20922;-69
2023/04/29 02:18:38;;;;;;;10.50;6.78;;;;;;;5.81;58.15;99440.95;1770937;80;21009;-67
2023/04/29 02:21:09;;;;;;;13.75;7.05;;;;;;;5.83;58.08;99447.39;1771135;79;21108;-68
2023/04/29 02:23:35;;;;;;;8.55;6.58;;;;;;;5.84;58.01;99447.78;1767679;79;20973;-69
2023/04/29 02:26:05;;;;;;;15.05;6.70;;;;;;;5.85;58.00;99437.80;1747249;81;20921;-67
2023/04/29 02:28:34;;;;;;;12.80;6.45;;;;;;;5.87;57.90;99436.47;1777308;79;21073;-68
2023/04/29 02:30:58;;;;;;;9.00;6.35;;;;;;;5.89;57.88;99440.70;1779336;79;21007;-69
2023/04/29 02:33:24;;;;;;;16.07;7.08;;;;;;;5.94;57.76;99443.19;1781252;79;20987;-68
2023/04/29 02:35:50;;;;;;;15.80;6.03;;;;;;;5.99;57.76;99446.03;1777147;79;20946;-69
2023/04/29 02:38:19;;;;;;;9.58;6.70;;;;;;;5.98;57.77;99443.02;1779847;79;20981;-68
2023/04/29 02:40:47;;;;;;;9.73;6.47;;;;;;;5.98;57.70;99443.02;1778309;79;21572;-68
2023/04/29 02:43:14;;;;;;;10.58;6.22;;;;;;;5.98;57.73;99437.84;1776403;79;21050;-68
2023/04/29 02:45:40;;;;;;;9.80;6.30;;;;;;;6.01;57.74;99444.67;1779282;79;20947;-68
2023/04/29 02:48:06;;;;;;;12.73;6.95;;;;;;;6.04;57.66;99436.34;1778300;79;21010;-67
2023/04/29 02:50:32;;;;;;;16.40;6.45;;;;;;;6.08;57.48;99432.34;1777402;79;20955;-68
2023/04/29 02:53:03;;;;;;;12.50;6.75;;;;;;;6.12;57.48;99431.36;1777086;79;21668;-68
2023/04/29 02:55:31;;;;;;;8.78;5.95;;;;;;;6.16;57.33;99427.33;1755304;79;21021;-69
2023/04/29 02:58:05;;;;;;;9.28;6.37;;;;;;;6.19;57.31;99428.94;1771766;79;21020;-67
2023/04/29 03:00:31;;;;;;;12.78;6.67;;;;;;;6.23;57.33;99426.66;1752321;81;21398;-69
2023/04/29 03:02:57;;;;;;;14.47;5.75;;;;;;;6.26;57.33;99420.91;1746047;81;21149;-68
2023/04/29 03:05:25;;;;;;;8.23;5.75;;;;;;;6.29;57.14;99426.44;1754059;81;21053;-68
2023/04/29 03:07:52;;;;;;;9.75;6.37;;;;;;;6.31;56.91;99419.46;1754889;81;20965;-67
2023/04/29 03:10:18;;;;;;;9.05;6.47;;;;;;;6.35;56.86;99421.03;1769903;79;21521;-68
2023/04/29 03:12:45;;;;;;;9.30;6.30;;;;;;;6.37;56.95;99421.84;1737670;81;21486;-69
2023/04/29 03:15:12;;;;;;;10.82;6.45;;;;;;;6.38;56.84;99413.14;1739255;81;20958;-69
2023/04/29 03:17:39;;;;;;;11.48;6.58;;;;;;;6.38;56.90;99422.22;1741210;81;21560;-67
2023/04/29 03:20:07;;;;;;;13.45;6.65;;;;;;;6.39;56.77;99414.86;1741775;81;21022;-67
2023/04/29 03:22:33;;;;;;;10.98;6.10;;;;;;;6.40;56.68;99413.94;1738634;81;20956;-68
2023/04/29 03:25:00;;;;;;;18.27;6.78;;;;;;;6.41;56.45;99411.77;1752057;81;21016;-68
2023/04/29 03:27:26;;;;;;;9.95;6.35;;;;;;;6.40;56.41;99423.48;1778144;79;21069;-68
2023/04/29 03:29:52;;;;;;;13.03;6.85;;;;;;;6.38;56.51;99418.33;1778964;79;21484;-69
2023/04/29 03:32:18;;;;;;;10.78;5.83;;;;;;;6.36;56.48;99412.38;1748347;81;21707;-68
2023/04/29 03:34:44;;;;;;;10.20;6.30;;;;;;;6.36;56.39;99420.16;1789527;79;20990;-67
2023/04/29 03:37:11;;;;;;;9.13;6.05;;;;;;;6.36;56.36;99411.50;1785418;79;20984;-68
2023/04/29 03:39:38;;;;;;;15.38;7.10;;;;;;;6.37;56.13;99411.47;1771424;79;21076;-68
2023/04/29 03:42:04;;;;;;;10.88;6.25;;;;;;;6.38;56.05;99407.95;1742571;81;21338;-68
2023/04/29 03:44:30;;;;;;;9.65;5.85;;;;;;;6.39;56.38;99410.97;1750138;81;21032;-69
2023/04/29 03:46:56;;;;;;;12.65;7.00;;;;;;;6.41;56.23;99414.36;1750554;81;21022;-67
2023/04/29 03:49:23;;;;;;;15.45;6.87;;;;;;;6.44;56.20;99414.25;1742322;81;21556;-68
2023/04/29 03:51:49;;;;;;;10.03;6.25;;;;;;;6.46;55.98;99411.12;1748226;81;21073;-67
2023/04/29 03:54:18;;;;;;;8.07;6.30;;;;;;;6.48;56.05;99411.93;1740506;81;20917;-68
2023/04/29 03:56:44;;;;;;;10.30;6.22;;;;;;;6.53;56.09;99416.13;1782709;79;21850;-68
2023/04/29 03:59:10;;;;;;;10.00;6.15;;;;;;;6.56;56.00;99409.53;1787928;78;20998;-67
2023/04/29 04:01:38;;;;;;;13.32;6.97;;;;;;;6.58;56.05;99409.00;1795250;78;20938;-69
2023/04/29 04:04:04;;;;;;;11.28;7.15;;;;;;;6.62;56.06;99405.41;1803220;78;21081;-67
2023/04/29 04:06:31;;;;;;;11.28;6.22;;;;;;;6.64;55.96;99413.99;1773597;79;21088;-69
2023/04/29 04:08:57;;;;;;;12.50;6.37;;;;;;;6.69;56.14;99414.64;1740412;81;21136;-68
2023/04/29 04:11:23;;;;;;;10.40;6.35;;;;;;;6.71;55.97;99414.15;1770432;79;21012;-67
2023/04/29 04:13:49;;;;;;;11.55;6.60;;;;;;;6.78;56.01;99406.55;1740364;81;21036;-68
2023/04/29 04:16:17;;;;;;;13.70;6.60;;;;;;;6.87;56.06;99413.14;1796397;78;20974;-68
2023/04/29 04:18:44;;;;;;;15.15;6.72;;;;;;;6.91;55.95;99405.17;1796186;78;21069;-69
2023/04/29 04:21:11;;;;;;;10.82;5.85;;;;;;;7.00;55.68;99408.33;1797302;78;21006;-69
2023/04/29 04:23:40;;;;;;;19.65;6.33;;;;;;;7.06;55.58;99409.42;1795459;78;20986;-68
2023/04/29 04:26:07;;;;;;;10.40;6.60;;;;;;;7.13;55.87;99405.21;1791820;78;20934;-69
2023/04/29 04:28:35;;;;;;;;;;;;;;;7.20;55.82;99400.65;1797040;78;21061;-70
2023/04/29 04:31:01;;;;;;;10.78;6.75;;;;;;;7.31;55.68;99406.27;1791080;78;20172;-68
2023/04/29 04:33:28;;;;;;;10.88;7.00;;;;;;;7.46;55.80;99410.01;1797716;78;20980;-68
2023/04/29 04:35:54;;;;;;;10.80;6.65;;;;;;;7.56;55.67;99409.17;1785120;78;21023;-68
2023/04/29 04:38:22;;;;;;;12.28;7.08;;;;;;;7.65;55.65;99406.23;1794319;78;21520;-68
2023/04/29 04:40:53;;;;;;;10.38;5.92;;;;;;;7.78;55.52;99411.30;1790901;78;20986;-67
2023/04/29 04:43:22;;;;;;;15.25;7.37;;;;;;;7.87;55.58;99410.53;1798305;78;21061;-67
2023/04/29 04:45:52;;;;;;;20.17;7.67;;;;;;;8.01;55.47;99405.18;1791322;78;21029;-68
2023/04/29 04:48:18;;;;;;;14.03;8.00;;;;;;;8.01;55.47;99405.18;1791599;78;21339;-68
2023/04/29 04:50:45;;;;;;;18.00;7.83;;;;;;;8.14;55.50;99408.09;1791316;78;21090;-67
2023/04/29 04:53:13;;;;;;;17.82;7.35;;;;;;;8.22;55.44;99408.61;1752940;79;21025;-68
2023/04/29 04:55:39;;;;;;;11.45;7.25;;;;;;;8.34;55.54;99406.40;1795441;78;21025;-67
2023/04/29 04:58:05;;;;;;;11.25;7.17;;;;;;;8.45;55.34;99406.81;1784841;78;21571;-67
2023/04/29 05:00:35;;;;;;;13.90;7.33;;;;;;;8.53;55.29;99404.72;1787741;78;21427;-68
2023/04/29 05:03:02;;;;;;;10.98;7.50;;;;;;;8.62;54.95;99396.50;1781835;79;21081;-67
2023/04/29 05:05:28;;;;;;;10.43;8.00;;;;;;;8.70;55.20;99399.61;1783275;79;21014;-68
2023/04/29 05:07:54;;;;;;;14.15;7.00;;;;;;;8.73;54.72;99391.66;1780742;79;21046;-69
2023/04/29 05:10:25;;;;;;;11.38;7.50;;;;;;;8.72;54.72;99393.89;1776687;79;21073;-68
2023/04/29 05:12:51;;;;;;;15.15;7.30;;;;;;;8.66;54.65;99395.47;1771118;79;21676;-67
2023/04/29 05:15:18;;;;;;;17.25;7.47;;;;;;;8.60;54.68;99397.05;1775343;79;20997;-69
2023/04/29 05:17:44;;;;;;;12.40;6.47;;;;;;;8.55;54.78;99392.50;1770338;79;21012;-68
2023/04/29 05:20:13;;;;;;;10.88;6.42;;;;;;;8.49;54.78;99392.77;1762423;80;21155;-68
2023/04/29 05:22:40;;;;;;;11.20;7.08;;;;;;;8.49;54.84;99384.97;1753830;80;21006;-68
2023/04/29 05:25:06;;;;;;;9.90;6.50;;;;;;;8.50;54.66;99386.64;1761820;80;21500;-69
2023/04/29 05:27:33;;;;;;;11.00;7.33;;;;;;;8.48;54.71;99387.16;1755797;80;21533;-69
2023/04/29 05:30:00;;;;;;;12.45;6.70;;;;;;;8.44;54.60;99385.62;1744387;81;20983;-68
2023/04/29 05:32:26;;;;;;;10.82;6.47;;;;;;;8.42;54.47;99386.97;1782363;79;21529;-69
2023/04/29 05:34:52;;;;;;;10.98;6.78;;;;;;;8.34;54.28;99390.79;1781067;79;21533;-69
2023/04/29 05:37:19;;;;;;;12.70;7.92;;;;;;;8.29;54.52;99386.64;1777653;78;21000;-68
2023/04/29 05:39:45;;;;;;;13.22;6.97;;;;;;;8.29;54.34;99384.05;1780512;79;20946;-68
2023/04/29 05:42:11;;;;;;;10.53;6.50;;;;;;;8.29;54.44;99389.25;1776709;80;20959;-68
2023/04/29 05:44:38;;;;;;;11.97;6.67;;;;;;;8.32;54.45;99390.00;1780898;80;21514;-69
2023/04/29 05:47:05;;;;;;;9.63;6.42;;;;;;;8.30;54.57;99385.72;1778396;80;21034;-68
2023/04/29 05:49:31;;;;;;;16.50;7.78;;;;;;;8.30;54.46;99388.33;1778286;80;20955;-69
2023/04/29 05:51:57;;;;;;;10.00;6.53;;;;;;;8.36;54.52;99385.91;1778570;79;20959;-69
2023/04/29 05:54:23;;;;;;;12.50;7.35;;;;;;;8.43;54.62;99385.21;1780255;79;21045;-68
2023/04/29 05:56:49;;;;;;;12.00;7.55;;;;;;;8.51;54.35;99383.12;1780733;79;20990;-69
2023/04/29 05:59:15;;;;;;;12.55;7.78;;;;;;;8.58;54.31;99376.74;1779493;79;21077;-68
2023/04/29 06:01:42;;;;;;;15.30;11.03;;;;;;;8.70;54.18;99372.28;1775129;79;22532;-69
2023/04/29 06:04:09;;;;;;;10.48;7.45;;;;;;;8.85;54.16;99368.59;1766054;79;20987;-68
2023/04/29 06:06:36;;;;;;;12.18;7.67;;;;;;;9.03;54.07;99371.66;1763338;79;20988;-68
2023/04/29 06:09:03;;;;;;;9.53;6.90;;;;;;;9.25;54.18;99373.27;1770049;79;21081;-69
2023/04/29 06:11:30;;;;;;;11.93;8.40;;;;;;;9.44;53.90;99368.87;1769281;79;21522;-69
2023/04/29 06:13:56;;;;;;;13.78;10.35;;;;;;;9.63;54.12;99360.54;1759589;79;21426;-68
2023/04/29 06:16:22;;;;;;;13.58;8.50;;;;;;;9.81;54.12;99366.59;1768580;79;21589;-68
2023/04/29 06:18:49;;;;;;;11.65;8.58;;;;;;;10.02;54.16;99350.78;1767639;79;21558;-68
2023/04/29 06:21:15;;;;;;;14.28;8.80;;;;;;;10.32;54.02;99351.01;1773580;79;21647;-68
2023/04/29 06:23:41;;;;;;;13.13;6.42;;;;;;;10.65;54.23;99352.77;1764179;79;20980;-68
2023/04/29 06:26:08;;;;;;;12.55;6.30;;;;;;;11.00;53.89;99348.70;1768188;79;21026;-69
2023/04/29 06:28:34;;;;;;;12.60;6.78;;;;;;;11.27;53.89;99351.09;1765024;79;21050;-68
2023/04/29 06:31:02;;;;;;;9.30;5.62;;;;;;;11.47;53.19;99354.36;1766795;79;20985;-68
2023/04/29 06:33:30;;;;;;;11.70;6.28;;;;;;;11.71;53.36;99364.73;1769184;79;21442;-69
2023/04/29 06:35:56;;;;;;;10.55;6.75;;;;;;;11.77;51.31;99360.45;1763552;79;21031;-69
2023/04/29 06:38:22;;;;;;;13.35;6.85;;;;;;;11.77;51.31;99360.45;1769515;79;21038;-68
2023/04/29 06:40:48;;;;;;;8.28;6.33;;;;;;;11.81;51.91;99359.33;1774644;79;20994;-69
2023/04/29 06:43:14;;;;;;;12.63;7.35;;;;;;;11.92;51.58;99359.21;1768312;79;21055;-68
2023/04/29 06:45:41;;;;;;;13.08;6.60;;;;;;;12.01;52.24;99359.50;1764119;79;20955;-68
2023/04/29 06:48:07;;;;;;;12.53;6.87;;;;;;;12.16;52.28;99356.46;1755836;79;20951;-68
2023/04/29 06:50:35;;;;;;;12.53;6.92;;;;;;;12.37;51.88;99358.72;1771957;79;21514;-69
2023/04/29 06:53:01;;;;;;;11.30;6.95;;;;;;;12.49;51.57;99350.10;1774042;79;21037;-68
2023/04/29 06:55:30;;;;;;;16.77;7.20;;;;;;;12.59;51.10;99352.55;1769813;79;22461;-68
2023/04/29 06:57:56;;;;;;;14.18;6.42;;;;;;;12.73;51.02;99349.91;1764362;79;20968;-68
2023/04/29 07:00:23;;;;;;;9.70;6.80;;;;;;;12.95;51.95;99342.03;1767473;78;21049;-69
2023/04/29 07:02:54;;;;;;;8.40;6.12;;;;;;;13.15;51.10;99341.59;1797944;78;21489;-69
2023/04/29 07:05:18;;;;;;;12.65;7.20;;;;;;;13.35;51.51;99336.89;1798785;78;20989;-69
2023/04/29 07:07:44;;;;;;;10.68;6.75;;;;;;;13.68;50.98;99332.53;1793059;78;21030;-69
2023/04/29 07:10:10;;;;;;;15.68;7.10;;;;;;;13.95;50.48;99330.30;1798323;78;21006;-68
2023/04/29 07:12:37;;;;;;;11.95;7.05;;;;;;;14.13;49.04;99330.86;1796173;78;21007;-69
2023/04/29 07:15:04;;;;;;;10.55;6.55;;;;;;;14.32;48.71;99331.28;1792861;78;21080;-69
2023/04/29 07:17:30;;;;;;;10.00;6.60;;;;;;;14.53;48.36;99328.48;1795906;78;20986;-69
2023/04/29 07:19:59;;;;;;;10.25;6.85;;;;;;;14.75;49.74;99334.39;1798550;78;20951;-69
2023/04/29 07:22:25;;;;;;;10.20;7.28;;;;;;;15.11;49.51;99327.47;1794210;78;21470;-69
2023/04/29 07:24:54;;;;;;;12.23;7.47;;;;;;;15.53;49.48;99333.17;1794420;78;21623;-69
2023/04/29 07:27:20;;;;;;;12.18;7.65;;;;;;;15.94;46.97;99336.34;1800492;78;21026;-69
2023/04/29 07:29:46;;;;;;;14.05;7.97;;;;;;;16.33;47.39;99335.92;1796848;78;21017;-69
2023/04/29 07:32:13;;;;;;;12.45;7.72;;;;;;;16.64;45.04;99333.54;1793983;78;21084;-69
2023/04/29 07:34:39;;;;;;;17.32;7.50;;;;;;;16.88;46.21;99328.63;1788993;78;21041;-69
2023/04/29 07:37:06;;;;;;;11.18;7.80;;;;;;;17.14;45.23;99328.70;1793886;78;21022;-69
2023/04/29 07:39:34;;;;;;;12.98;7.85;;;;;;;17.34;45.70;99323.62;1800342;78;21080;-69
2023/04/29 07:42:01;;;;;;;10.85;7.20;;;;;;;17.52;45.51;99327.36;1792043;78;20978;-69
2023/04/29 07:44:28;;;;;;;14.78;7.67;;;;;;;17.75;46.47;99321.98;1788451;78;21010;-69
2023/04/29 07:46:54;;;;;;;11.00;8.38;;;;;;;18.00;44.31;99325.59;1798439;78;20966;-69
2023/04/29 07:49:20;;;;;;;10.65;7.50;;;;;;;18.22;43.03;99325.09;1797054;78;20954;-69
2023/04/29 07:51:47;;;;;;;10.35;8.38;;;;;;;18.46;44.50;99324.33;1792937;78;21045;-69
2023/04/29 07:54:13;;;;;;;15.07;8.33;;;;;;;18.67;43.87;99325.58;1797434;78;20953;-69
2023/04/29 07:56:39;;;;;;;13.30;7.65;;;;;;;18.71;41.61;99330.13;1800097;78;20965;-70
2023/04/29 07:59:07;;;;;;;16.17;8.65;;;;;;;18.99;42.94;99328.08;1769216;78;21430;-69
2023/04/29 08:01:33;;;;;;;13.68;7.67;;;;;;;19.48;43.22;99324.66;1767501;78;21004;-69
2023/04/29 08:04:02;;;;;;;13.73;7.50;;;;;;;20.12;43.26;99322.25;1756785;80;20969;-71
2023/04/29 08:06:29;;;;;;;16.40;7.70;;;;;;;20.82;43.06;99319.23;1742990;81;22404;-70
2023/04/29 08:08:56;;;;;;;13.55;7.97;;;;;;;21.50;40.27;99310.83;1750458;81;21440;-70
2023/04/29 08:11:23;;;;;;;13.60;8.23;;;;;;;22.06;41.10;99302.95;1747957;81;21517;-70
2023/04/29 08:13:49;;;;;;;14.90;8.38;;;;;;;22.38;38.88;99305.52;1749328;81;21195;-70
2023/04/29 08:16:16;;;;;;;16.00;8.88;;;;;;;22.71;37.23;99306.50;1754774;80;21014;-70
2023/04/29 08:18:43;;;;;;;10.28;7.70;;;;;;;23.04;39.03;99300.46;1753757;80;20937;-69
2023/04/29 08:21:12;;;;;;;17.40;8.65;;;;;;;23.55;38.36;99295.36;1737768;81;21026;-70
2023/04/29 08:23:39;;;;;;;11.97;7.78;;;;;;;24.37;39.81;99291.77;1740082;81;20950;-70
2023/04/29 08:26:05;;;;;;;;;;;;;;;25.19;39.46;99290.44;1747751;81;20966;-70
2023/04/29 08:28:31;;;;;;;11.80;8.10;;;;;;;25.79;30.57;99293.31;1752519;81;20532;-70
2023/04/29 08:30:57;;;;;;;11.60;8.08;;;;;;;25.85;35.08;99296.62;1739972;81;20963;-69
2023/04/29 08:33:24;;;;;;;15.03;8.65;;;;;;;25.47;34.72;99307.29;1755922;81;21059;-71
2023/04/29 08:35:59;;;;;;;18.48;9.30;;;;;;;24.83;33.29;99306.65;1747870;81;21115;-70
2023/04/29 08:38:25;;;;;;;12.85;8.20;;;;;;;23.99;32.58;99315.03;1757745;81;21030;-69
2023/04/29 08:40:54;;;;;;;16.50;9.13;;;;;;;22.54;32.40;99318.04;1738543;80;20963;-70
2023/04/29 08:43:20;;;;;;;13.68;9.28;;;;;;;21.30;32.79;99321.23;1735622;81;21018;-69
2023/04/29 08:45:48;;;;;;;17.25;9.43;;;;;;;20.68;33.92;99317.89;1733027;81;20994;-69
2023/04/29 08:48:16;;;;;;;13.38;7.72;;;;;;;20.31;34.00;99318.72;1741260;81;21489;-69
2023/04/29 08:50:43;;;;;;;13.48;8.68;;;;;;;20.90;35.09;99313.19;1746879;81;20970;-70
2023/04/29 08:53:12;;;;;;;21.42;9.15;;;;;;;22.10;34.07;99305.66;1752943;80;21499;-70
2023/04/29 08:55:47;;;;;;;11.75;8.38;;;;;;;23.39;35.07;99292.20;1738980;81;21041;-69
2023/04/29 08:58:15;;;;;;;13.78;8.55;;;;;;;25.05;34.88;99296.52;1746261;81;21014;-69
2023/04/29 09:00:43;;;;;;;11.68;7.92;;;;;;;25.68;33.75;99287.89;1762544;79;21498;-70
2023/04/29 09:03:28;;;;;;;17.80;8.45;;;;;;;26.22;34.71;99282.40;1771761;79;21134;-69
2023/04/29 09:05:56;;;;;;;11.68;7.67;;;;;;;25.91;30.89;99277.20;1789769;78;21068;-69
2023/04/29 09:08:23;;;;;;;15.03;7.75;;;;;;;25.78;33.53;99279.12;1792139;78;20981;-70
2023/04/29 09:10:53;;;;;;;11.63;8.35;;;;;;;26.36;32.52;99284.75;1796712;78;21050;-69
2023/04/29 09:13:24;;;;;;;15.20;8.08;;;;;;;26.53;29.53;99278.21;1796756;78;20949;-70
2023/04/29 09:15:50;;;;;;;15.03;7.95;;;;;;;26.06;31.00;99284.73;1796681;78;21116;-70
2023/04/29 09:18:46;;;;;;;15.25;8.45;;;;;;;25.83;31.69;99287.98;1793235;78;20982;-70
2023/04/29 09:21:14;;;;;;;18.27;7.30;;;;;;;25.28;31.55;99277.03;1795161;78;20934;-69
2023/04/29 09:23:41;;;;;;;11.10;7.90;;;;;;;24.55;31.59;99279.07;1796561;78;20945;-69
2023/04/29 09:26:08;;;;;;;12.18;8.03;;;;;;;24.14;31.94;99277.83;1798838;78;20993;-70
2023/04/29 09:28:34;;;;;;;9.68;6.62;;;;;;;24.02;31.52;99276.53;1797458;78;20989;-70
2023/04/29 09:31:05;;;;;;;14.43;7.20;;;;;;;23.79;31.23;99279.08;1792925;78;21093;-69
2023/04/29 09:33:34;;;;;;;12.07;6.72;;;;;;;23.36;30.62;99281.88;1794863;78;20931;-69
2023/04/29 09:36:00;;;;;;;13.68;7.58;;;;;;;23.12;31.09;99274.68;1795602;78;21032;-69
2023/04/29 09:38:26;;;;;;;16.23;7.50;;;;;;;22.84;31.15;99279.41;1796469;78;21037;-70
2023/04/29 09:40:54;;;;;;;12.43;7.22;;;;;;;22.71;30.50;99279.03;1794266;78;20939;-69
2023/04/29 09:43:22;;;;;;;15.80;7.40;;;;;;;22.53;30.63;99279.97;1795321;78;20953;-69
2023/04/29 09:45:49;;;;;;;13.65;6.70;;;;;;;22.55;30.13;99290.47;1796148;78;21533;-69
2023/04/29 09:48:16;;;;;;;13.53;6.58;;;;;;;22.81;30.60;99289.56;1797651;78;20930;-70
2023/04/29 09:50:43;;;;;;;13.00;6.62;;;;;;;23.01;30.93;99277.66;1792760;78;21027;-69
2023/04/29 09:53:11;;;;;;;12.07;6.47;;;;;;;23.79;30.62;99274.56;1768378;79;21009;-69
2023/04/29 09:55:58;;;;;;;10.98;7.05;;;;;;;24.56;31.27;99274.05;1768849;80;21575;-70
2023/04/29 09:58:35;;;;;;;14.00;6.80;;;;;;;25.59;30.41;99268.42;1758369;80;21052;-69
2023/04/29 10:01:01;;;;;;;11.83;6.83;;;;;;;27.07;29.41;99266.27;1751351;79;21081;-69
2023/04/29 10:03:38;;;;;;;9.03;7.30;;;;;;;28.48;30.24;99263.70;1766334;80;21106;-69
2023/04/29 10:06:06;;;;;;;8.90;6.42;;;;;;;29.54;28.68;99262.65;1762296;80;20986;-70
2023/04/29 10:08:34;;;;;;;9.85;7.00;;;;;;;29.88;27.35;99260.80;1761056;80;20967;-69
2023/04/29 10:11:02;;;;;;;10.70;5.83;;;;;;;30.33;28.09;99260.94;1765030;80;20995;-69
2023/04/29 10:13:29;;;;;;;10.08;6.40;;;;;;;30.05;27.20;99262.05;1763501;80;21058;-69
2023/04/29 10:16:20;;;;;;;11.65;6.28;;;;;;;30.01;25.57;99263.48;1762512;80;20972;-70
2023/04/29 10:18:50;;;;;;;14.80;6.90;;;;;;;30.29;26.85;99267.80;1756076;80;21007;-71
2023/04/29 10:21:20;;;;;;;8.10;6.10;;;;;;;30.49;24.95;99269.91;1767912;80;21511;-69
2023/04/29 10:23:49;;;;;;;16.40;7.05;;;;;;;30.61;25.81;99266.55;1766702;80;20986;-71
2023/04/29 10:26:17;;;;;;;10.40;6.25;;;;;;;30.31;24.99;99254.96;1757555;80;21030;-69
2023/04/29 10:28:46;;;;;;;13.03;6.90;;;;;;;29.45;24.49;99270.63;1762981;80;20978;-70
2023/04/29 10:31:15;;;;;;;13.05;7.20;;;;;;;28.44;24.76;99262.46;1760936;80;21007;-69
2023/04/29 10:33:47;;;;;;;17.60;7.65;;;;;;;27.08;24.68;99273.79;1737261;81;21520;-69
2023/04/29 10:36:17;;;;;;;15.93;7.25;;;;;;;25.96;25.67;99260.59;1749100;80;21472;-68
2023/04/29 10:38:47;;;;;;;13.18;7.00;;;;;;;25.53;26.24;99257.11;1756160;81;21007;-69
2023/04/29 10:41:24;;;;;;;9.28;6.78;;;;;;;26.22;26.91;99260.16;1747607;80;20928;-68
2023/04/29 10:43:52;;;;;;;11.73;7.60;;;;;;;27.14;26.30;99254.27;1746887;81;20956;-68
2023/04/29 10:46:25;;;;;;;12.85;7.53;;;;;;;28.13;26.57;99255.66;1749612;80;21011;-69
2023/04/29 10:48:58;;;;;;;10.75;7.97;;;;;;;28.22;24.80;99258.48;1755464;80;20968;-70
2023/04/29 10:51:33;;;;;;;15.00;7.50;;;;;;;26.34;25.49;99261.34;1753766;81;21572;-69
2023/04/29 10:54:15;;;;;;;11.65;8.13;;;;;;;24.86;26.46;99257.72;1747542;81;21015;-70
2023/04/29 10:56:50;;;;;;;12.53;7.62;;;;;;;24.44;27.52;99271.44;1750651;81;21002;-69
2023/04/29 10:59:29;;;;;;;12.03;8.05;;;;;;;24.14;27.80;99264.49;1753813;81;20989;-66
2023/04/29 11:01:56;;;;;;;10.18;7.28;;;;;;;23.92;28.35;99269.21;1759689;79;20952;-66
2023/04/29 11:04:22;;;;;;;9.08;6.92;;;;;;;23.92;29.36;99270.06;1772171;79;21006;-69
2023/04/29 11:06:53;;;;;;;11.00;7.40;;;;;;;24.09;28.74;99270.87;1780436;79;21603;-68
2023/04/29 11:09:27;;;;;;;13.55;7.78;;;;;;;23.85;28.32;99269.06;1770767;79;21026;-67
2023/04/29 11:12:02;;;;;;;11.97;8.33;;;;;;;22.85;29.00;99270.42;1757888;81;20930;-68
2023/04/29 11:14:38;;;;;;;15.75;8.08;;;;;;;22.09;29.77;99260.59;1770030;79;21005;-70
2023/04/29 11:17:14;;;;;;;11.65;7.45;;;;;;;21.38;30.30;99262.92;1778022;79;20973;-69
2023/04/29 11:19:46;;;;;;;10.82;6.87;;;;;;;20.97;31.74;99275.77;1779614;79;20969;-71
2023/04/29 11:22:27;;;;;;;11.12;6.58;;;;;;;20.79;31.58;99271.77;1772815;79;21094;-69
2023/04/29 11:24:59;;;;;;;10.40;6.05;;;;;;;20.55;33.36;99277.61;1777892;79;21006;-69
2023/04/29 11:27:28;;;;;;;13.48;6.92;;;;;;;20.04;32.89;99272.27;1774532;79;21481;-69
2023/04/29 11:29:59;;;;;;;13.55;6.28;;;;;;;19.67;35.04;99288.44;1780075;79;21044;-69
2023/04/29 11:32:30;;;;;;;6.35;5.45;;;;;;;19.28;35.05;99277.00;1780969;79;21255;-69
2023/04/29 11:35:14;;;;;;;10.32;7.25;;;;;;;19.01;35.04;99274.52;1774691;79;21451;-69
2023/04/29 11:37:42;;;;;;;11.63;5.90;;;;;;;18.78;34.14;99275.75;1797339;78;20968;-68